sensor_id;sensor_type;location;lat;lon;timestamp;P1;durP1;ratioP1;P2;durP2;ratioP2
24273;SDS011;12392;42.678;23.380;2022-11-15T00:01:25;44.33;;;21.77;;
24273;SDS011;12392;42.678;23.380;2022-11-15T00:03:51;48.85;;;21.98;;
24273;SDS011;12392;42.678;23.380;2022-11-15T00:06:17;44.90;;;22.00;;
24273;SDS011;12392;42.678;23.380;2022-11-15T00:08:42;44.70;;;20.13;;
24273;SDS011;12392;42.678;23.380;2022-11-15T00:11:10;45.58;;;19.65;;
24273;SDS011;12392;42.678;23.380;2022-11-15T00:13:36;41.33;;;19.55;;
24273;SDS011;12392;42.678;23.380;2022-11-15T00:16:02;38.33;;;20.20;;
24273;SDS011;12392;42.678;23.380;2022-11-15T00:18:28;38.85;;;19.70;;
24273;SDS011;12392;42.678;23.380;2022-11-15T00:20:54;46.17;;;22.42;;
24273;SDS011;12392;42.678;23.380;2022-11-15T00:23:20;56.17;;;27.35;;
24273;SDS011;12392;42.678;23.380;2022-11-15T00:25:46;56.35;;;24.80;;
24273;SDS011;12392;42.678;23.380;2022-11-15T00:28:13;52.28;;;25.50;;
24273;SDS011;12392;42.678;23.380;2022-11-15T00:30:39;58.22;;;26.75;;
24273;SDS011;12392;42.678;23.380;2022-11-15T00:33:05;53.10;;;24.38;;
24273;SDS011;12392;42.678;23.380;2022-11-15T00:35:32;48.55;;;24.48;;
24273;SDS011;12392;42.678;23.380;2022-11-15T00:37:59;49.50;;;23.20;;
24273;SDS011;12392;42.678;23.380;2022-11-15T00:40:25;50.00;;;22.35;;
24273;SDS011;12392;42.678;23.380;2022-11-15T00:42:51;46.97;;;22.63;;
24273;SDS011;12392;42.678;23.380;2022-11-15T00:45:16;49.88;;;22.60;;
24273;SDS011;12392;42.678;23.380;2022-11-15T00:47:45;45.38;;;21.27;;
24273;SDS011;12392;42.678;23.380;2022-11-15T00:50:11;46.65;;;24.10;;
24273;SDS011;12392;42.678;23.380;2022-11-15T00:52:37;54.75;;;24.55;;
24273;SDS011;12392;42.678;23.380;2022-11-15T00:55:03;57.58;;;26.48;;
24273;SDS011;12392;42.678;23.380;2022-11-15T00:57:29;58.58;;;27.85;;
24273;SDS011;12392;42.678;23.380;2022-11-15T00:59:54;68.28;;;31.55;;
24273;SDS011;12392;42.678;23.380;2022-11-15T01:02:20;67.10;;;30.90;;
24273;SDS011;12392;42.678;23.380;2022-11-15T01:04:46;65.95;;;28.70;;
24273;SDS011;12392;42.678;23.380;2022-11-15T01:07:12;77.93;;;31.42;;
24273;SDS011;12392;42.678;23.380;2022-11-15T01:09:37;95.25;;;35.78;;
24273;SDS011;12392;42.678;23.380;2022-11-15T01:12:03;94.65;;;39.22;;
24273;SDS011;12392;42.678;23.380;2022-11-15T01:14:29;82.57;;;37.97;;
24273;SDS011;12392;42.678;23.380;2022-11-15T01:16:55;101.25;;;44.92;;
24273;SDS011;12392;42.678;23.380;2022-11-15T01:19:20;94.75;;;37.53;;
24273;SDS011;12392;42.678;23.380;2022-11-15T01:21:48;90.38;;;43.80;;
24273;SDS011;12392;42.678;23.380;2022-11-15T01:24:15;88.55;;;36.70;;
24273;SDS011;12392;42.678;23.380;2022-11-15T01:26:40;90.85;;;37.30;;
24273;SDS011;12392;42.678;23.380;2022-11-15T01:29:06;83.22;;;37.65;;
24273;SDS011;12392;42.678;23.380;2022-11-15T01:31:32;142.60;;;56.80;;
24273;SDS011;12392;42.678;23.380;2022-11-15T01:33:57;145.55;;;59.47;;
24273;SDS011;12392;42.678;23.380;2022-11-15T01:36:23;136.73;;;58.70;;
24273;SDS011;12392;42.678;23.380;2022-11-15T01:38:55;133.32;;;56.83;;
24273;SDS011;12392;42.678;23.380;2022-11-15T01:41:23;130.80;;;56.97;;
24273;SDS011;12392;42.678;23.380;2022-11-15T01:43:54;132.35;;;54.67;;
24273;SDS011;12392;42.678;23.380;2022-11-15T01:48:56;164.73;;;67.32;;
24273;SDS011;12392;42.678;23.380;2022-11-15T01:51:23;151.63;;;64.15;;
24273;SDS011;12392;42.678;23.380;2022-11-15T01:53:52;176.02;;;68.50;;
24273;SDS011;12392;42.678;23.380;2022-11-15T01:56:22;155.25;;;60.63;;
24273;SDS011;12392;42.678;23.380;2022-11-15T01:58:49;153.32;;;60.28;;
24273;SDS011;12392;42.678;23.380;2022-11-15T02:01:16;158.73;;;59.25;;
24273;SDS011;12392;42.678;23.380;2022-11-15T02:04:05;110.55;;;43.38;;
24273;SDS011;12392;42.678;23.380;2022-11-15T02:06:38;100.38;;;39.33;;
24273;SDS011;12392;42.678;23.380;2022-11-15T02:09:05;97.68;;;37.38;;
24273;SDS011;12392;42.678;23.380;2022-11-15T02:11:31;90.78;;;35.78;;
24273;SDS011;12392;42.678;23.380;2022-11-15T02:13:57;89.07;;;34.20;;
24273;SDS011;12392;42.678;23.380;2022-11-15T02:18:52;88.25;;;36.78;;
24273;SDS011;12392;42.678;23.380;2022-11-15T02:21:37;63.47;;;29.25;;
24273;SDS011;12392;42.678;23.380;2022-11-15T02:32:28;58.90;;;24.80;;
24273;SDS011;12392;42.678;23.380;2022-11-15T02:40:38;49.75;;;22.98;;
24273;SDS011;12392;42.678;23.380;2022-11-15T02:43:12;58.78;;;25.15;;
24273;SDS011;12392;42.678;23.380;2022-11-15T02:46:06;53.67;;;21.38;;
24273;SDS011;12392;42.678;23.380;2022-11-15T02:49:13;47.70;;;21.30;;
24273;SDS011;12392;42.678;23.380;2022-11-15T02:51:40;56.55;;;22.35;;
24273;SDS011;12392;42.678;23.380;2022-11-15T02:54:06;63.30;;;24.08;;
24273;SDS011;12392;42.678;23.380;2022-11-15T02:56:32;51.05;;;25.40;;
24273;SDS011;12392;42.678;23.380;2022-11-15T02:59:05;55.55;;;23.27;;
24273;SDS011;12392;42.678;23.380;2022-11-15T03:04:45;63.80;;;23.08;;
24273;SDS011;12392;42.678;23.380;2022-11-15T03:07:22;55.53;;;22.63;;
24273;SDS011;12392;42.678;23.380;2022-11-15T03:12:28;54.55;;;23.38;;
24273;SDS011;12392;42.678;23.380;2022-11-15T03:15:00;45.25;;;22.23;;
24273;SDS011;12392;42.678;23.380;2022-11-15T03:17:33;52.30;;;22.48;;
24273;SDS011;12392;42.678;23.380;2022-11-15T03:20:04;41.05;;;20.15;;
24273;SDS011;12392;42.678;23.380;2022-11-15T03:22:38;46.85;;;23.40;;
24273;SDS011;12392;42.678;23.380;2022-11-15T03:25:07;44.25;;;19.52;;
24273;SDS011;12392;42.678;23.380;2022-11-15T03:27:36;54.83;;;20.05;;
24273;SDS011;12392;42.678;23.380;2022-11-15T03:30:05;49.80;;;20.05;;
24273;SDS011;12392;42.678;23.380;2022-11-15T03:32:34;47.70;;;20.15;;
24273;SDS011;12392;42.678;23.380;2022-11-15T03:35:05;49.80;;;20.52;;
24273;SDS011;12392;42.678;23.380;2022-11-15T03:37:38;42.33;;;19.45;;
24273;SDS011;12392;42.678;23.380;2022-11-15T03:40:04;54.45;;;21.30;;
24273;SDS011;12392;42.678;23.380;2022-11-15T03:42:46;54.13;;;21.38;;
24273;SDS011;12392;42.678;23.380;2022-11-15T03:48:00;48.53;;;21.27;;
24273;SDS011;12392;42.678;23.380;2022-11-15T03:50:32;41.25;;;19.65;;
24273;SDS011;12392;42.678;23.380;2022-11-15T03:52:59;42.60;;;18.80;;
24273;SDS011;12392;42.678;23.380;2022-11-15T03:55:24;43.22;;;20.65;;
24273;SDS011;12392;42.678;23.380;2022-11-15T03:57:51;46.20;;;19.67;;
24273;SDS011;12392;42.678;23.380;2022-11-15T04:00:18;44.80;;;20.85;;
24273;SDS011;12392;42.678;23.380;2022-11-15T04:02:44;47.38;;;21.88;;
24273;SDS011;12392;42.678;23.380;2022-11-15T04:05:10;51.67;;;23.05;;
24273;SDS011;12392;42.678;23.380;2022-11-15T04:07:35;55.45;;;24.20;;
24273;SDS011;12392;42.678;23.380;2022-11-15T04:10:01;49.80;;;23.33;;
24273;SDS011;12392;42.678;23.380;2022-11-15T04:12:28;50.13;;;22.98;;
24273;SDS011;12392;42.678;23.380;2022-11-15T04:15:14;53.08;;;24.05;;
24273;SDS011;12392;42.678;23.380;2022-11-15T04:17:45;49.25;;;22.92;;
24273;SDS011;12392;42.678;23.380;2022-11-15T04:20:20;41.40;;;20.13;;
24273;SDS011;12392;42.678;23.380;2022-11-15T04:23:18;38.53;;;21.20;;
24273;SDS011;12392;42.678;23.380;2022-11-15T04:26:05;46.15;;;22.70;;
24273;SDS011;12392;42.678;23.380;2022-11-15T04:28:35;42.30;;;21.52;;
24273;SDS011;12392;42.678;23.380;2022-11-15T04:31:20;49.88;;;21.33;;
24273;SDS011;12392;42.678;23.380;2022-11-15T04:33:46;42.80;;;20.30;;
24273;SDS011;12392;42.678;23.380;2022-11-15T04:36:12;44.20;;;20.98;;
24273;SDS011;12392;42.678;23.380;2022-11-15T04:38:56;50.53;;;24.58;;
24273;SDS011;12392;42.678;23.380;2022-11-15T04:41:22;46.50;;;23.40;;
24273;SDS011;12392;42.678;23.380;2022-11-15T04:43:47;49.45;;;23.25;;
24273;SDS011;12392;42.678;23.380;2022-11-15T04:46:13;54.30;;;23.70;;
24273;SDS011;12392;42.678;23.380;2022-11-15T04:48:39;51.38;;;21.55;;
24273;SDS011;12392;42.678;23.380;2022-11-15T04:51:04;42.13;;;21.60;;
24273;SDS011;12392;42.678;23.380;2022-11-15T04:53:30;56.22;;;23.73;;
24273;SDS011;12392;42.678;23.380;2022-11-15T04:55:55;51.20;;;26.10;;
24273;SDS011;12392;42.678;23.380;2022-11-15T04:58:21;53.25;;;23.30;;
24273;SDS011;12392;42.678;23.380;2022-11-15T05:00:47;58.40;;;24.85;;
24273;SDS011;12392;42.678;23.380;2022-11-15T05:03:12;49.72;;;23.00;;
24273;SDS011;12392;42.678;23.380;2022-11-15T05:05:57;43.10;;;20.73;;
24273;SDS011;12392;42.678;23.380;2022-11-15T05:08:23;48.92;;;22.00;;
24273;SDS011;12392;42.678;23.380;2022-11-15T05:10:49;52.97;;;22.23;;
24273;SDS011;12392;42.678;23.380;2022-11-15T05:13:15;50.97;;;22.35;;
24273;SDS011;12392;42.678;23.380;2022-11-15T05:15:41;49.30;;;23.33;;
24273;SDS011;12392;42.678;23.380;2022-11-15T05:18:07;55.00;;;23.92;;
24273;SDS011;12392;42.678;23.380;2022-11-15T05:20:32;52.72;;;23.92;;
24273;SDS011;12392;42.678;23.380;2022-11-15T05:22:58;53.47;;;22.13;;
24273;SDS011;12392;42.678;23.380;2022-11-15T05:25:24;51.53;;;22.70;;
24273;SDS011;12392;42.678;23.380;2022-11-15T05:27:50;44.80;;;19.38;;
24273;SDS011;12392;42.678;23.380;2022-11-15T05:30:16;51.22;;;21.02;;
24273;SDS011;12392;42.678;23.380;2022-11-15T05:32:42;46.88;;;20.67;;
24273;SDS011;12392;42.678;23.380;2022-11-15T05:35:08;41.63;;;18.90;;
24273;SDS011;12392;42.678;23.380;2022-11-15T05:37:38;48.00;;;19.70;;
24273;SDS011;12392;42.678;23.380;2022-11-15T05:40:04;53.28;;;21.35;;
24273;SDS011;12392;42.678;23.380;2022-11-15T05:42:30;50.47;;;20.42;;
24273;SDS011;12392;42.678;23.380;2022-11-15T05:44:56;53.67;;;22.13;;
24273;SDS011;12392;42.678;23.380;2022-11-15T05:47:24;53.92;;;24.40;;
24273;SDS011;12392;42.678;23.380;2022-11-15T05:49:50;55.72;;;24.65;;
24273;SDS011;12392;42.678;23.380;2022-11-15T05:52:18;68.88;;;27.52;;
24273;SDS011;12392;42.678;23.380;2022-11-15T05:54:46;63.10;;;26.52;;
24273;SDS011;12392;42.678;23.380;2022-11-15T05:57:12;64.57;;;27.38;;
24273;SDS011;12392;42.678;23.380;2022-11-15T05:59:37;69.32;;;33.95;;
24273;SDS011;12392;42.678;23.380;2022-11-15T06:05:11;69.70;;;27.45;;
24273;SDS011;12392;42.678;23.380;2022-11-15T06:07:36;58.75;;;25.73;;
24273;SDS011;12392;42.678;23.380;2022-11-15T06:10:02;65.75;;;26.67;;
24273;SDS011;12392;42.678;23.380;2022-11-15T06:12:28;60.17;;;25.55;;
24273;SDS011;12392;42.678;23.380;2022-11-15T06:14:57;62.42;;;25.58;;
24273;SDS011;12392;42.678;23.380;2022-11-15T06:17:22;63.60;;;25.60;;
24273;SDS011;12392;42.678;23.380;2022-11-15T06:19:48;53.25;;;22.20;;
24273;SDS011;12392;42.678;23.380;2022-11-15T06:22:13;49.33;;;20.50;;
24273;SDS011;12392;42.678;23.380;2022-11-15T06:24:39;49.30;;;21.98;;
24273;SDS011;12392;42.678;23.380;2022-11-15T06:27:05;48.17;;;21.30;;
24273;SDS011;12392;42.678;23.380;2022-11-15T06:29:30;59.58;;;22.00;;
24273;SDS011;12392;42.678;23.380;2022-11-15T06:31:56;51.42;;;21.60;;
24273;SDS011;12392;42.678;23.380;2022-11-15T06:34:22;55.28;;;20.60;;
24273;SDS011;12392;42.678;23.380;2022-11-15T06:36:47;39.08;;;16.80;;
24273;SDS011;12392;42.678;23.380;2022-11-15T06:39:13;48.70;;;18.67;;
24273;SDS011;12392;42.678;23.380;2022-11-15T06:41:39;47.47;;;19.10;;
24273;SDS011;12392;42.678;23.380;2022-11-15T06:44:04;40.58;;;17.98;;
24273;SDS011;12392;42.678;23.380;2022-11-15T06:46:30;45.97;;;17.50;;
24273;SDS011;12392;42.678;23.380;2022-11-15T06:48:56;41.38;;;17.08;;
24273;SDS011;12392;42.678;23.380;2022-11-15T06:51:21;48.35;;;18.00;;
24273;SDS011;12392;42.678;23.380;2022-11-15T06:53:47;35.42;;;15.18;;
24273;SDS011;12392;42.678;23.380;2022-11-15T06:56:12;44.58;;;18.02;;
24273;SDS011;12392;42.678;23.380;2022-11-15T06:58:38;38.10;;;16.35;;
24273;SDS011;12392;42.678;23.380;2022-11-15T07:01:05;36.05;;;16.20;;
24273;SDS011;12392;42.678;23.380;2022-11-15T07:03:36;40.45;;;15.75;;
24273;SDS011;12392;42.678;23.380;2022-11-15T07:06:02;42.08;;;14.70;;
24273;SDS011;12392;42.678;23.380;2022-11-15T07:08:29;33.53;;;13.07;;
24273;SDS011;12392;42.678;23.380;2022-11-15T07:10:57;28.08;;;11.32;;
24273;SDS011;12392;42.678;23.380;2022-11-15T07:13:25;24.90;;;11.63;;
24273;SDS011;12392;42.678;23.380;2022-11-15T07:15:51;38.80;;;13.18;;
24273;SDS011;12392;42.678;23.380;2022-11-15T07:18:17;32.90;;;12.43;;
24273;SDS011;12392;42.678;23.380;2022-11-15T07:20:42;26.58;;;10.63;;
24273;SDS011;12392;42.678;23.380;2022-11-15T07:23:08;29.50;;;10.85;;
24273;SDS011;12392;42.678;23.380;2022-11-15T07:25:34;28.05;;;11.82;;
24273;SDS011;12392;42.678;23.380;2022-11-15T07:28:00;24.83;;;11.90;;
24273;SDS011;12392;42.678;23.380;2022-11-15T07:30:26;32.55;;;11.93;;
24273;SDS011;12392;42.678;23.380;2022-11-15T07:32:53;32.20;;;12.38;;
24273;SDS011;12392;42.678;23.380;2022-11-15T07:35:19;33.35;;;12.95;;
24273;SDS011;12392;42.678;23.380;2022-11-15T07:37:52;34.40;;;13.55;;
24273;SDS011;12392;42.678;23.380;2022-11-15T07:40:19;35.40;;;14.25;;
24273;SDS011;12392;42.678;23.380;2022-11-15T07:42:44;38.35;;;14.90;;
24273;SDS011;12392;42.678;23.380;2022-11-15T07:45:20;33.45;;;13.35;;
24273;SDS011;12392;42.678;23.380;2022-11-15T07:47:49;31.70;;;13.88;;
24273;SDS011;12392;42.678;23.380;2022-11-15T07:50:16;31.65;;;13.90;;
24273;SDS011;12392;42.678;23.380;2022-11-15T07:52:42;31.45;;;13.73;;
24273;SDS011;12392;42.678;23.380;2022-11-15T07:55:08;37.03;;;14.32;;
24273;SDS011;12392;42.678;23.380;2022-11-15T07:57:34;34.13;;;15.18;;
24273;SDS011;12392;42.678;23.380;2022-11-15T08:00:00;29.60;;;14.63;;
24273;SDS011;12392;42.678;23.380;2022-11-15T08:02:26;31.67;;;13.75;;
24273;SDS011;12392;42.678;23.380;2022-11-15T08:04:52;31.50;;;14.98;;
24273;SDS011;12392;42.678;23.380;2022-11-15T08:07:17;43.47;;;19.10;;
24273;SDS011;12392;42.678;23.380;2022-11-15T08:09:43;38.08;;;16.70;;
24273;SDS011;12392;42.678;23.380;2022-11-15T08:12:09;30.88;;;15.43;;
24273;SDS011;12392;42.678;23.380;2022-11-15T08:14:35;41.42;;;17.92;;
24273;SDS011;12392;42.678;23.380;2022-11-15T08:17:00;40.70;;;16.90;;
24273;SDS011;12392;42.678;23.380;2022-11-15T08:19:26;32.30;;;13.85;;
24273;SDS011;12392;42.678;23.380;2022-11-15T08:21:52;48.13;;;22.35;;
24273;SDS011;12392;42.678;23.380;2022-11-15T08:24:18;43.80;;;19.40;;
24273;SDS011;12392;42.678;23.380;2022-11-15T08:26:43;47.47;;;17.95;;
24273;SDS011;12392;42.678;23.380;2022-11-15T08:29:09;48.72;;;20.27;;
24273;SDS011;12392;42.678;23.380;2022-11-15T08:31:35;45.67;;;20.13;;
24273;SDS011;12392;42.678;23.380;2022-11-15T08:34:02;53.47;;;22.50;;
24273;SDS011;12392;42.678;23.380;2022-11-15T08:36:28;54.83;;;22.33;;
24273;SDS011;12392;42.678;23.380;2022-11-15T08:38:54;50.72;;;21.25;;
24273;SDS011;12392;42.678;23.380;2022-11-15T08:41:41;55.67;;;23.60;;
24273;SDS011;12392;42.678;23.380;2022-11-15T08:44:06;58.38;;;25.33;;
24273;SDS011;12392;42.678;23.380;2022-11-15T08:46:31;50.47;;;21.65;;
24273;SDS011;12392;42.678;23.380;2022-11-15T08:48:57;50.95;;;21.85;;
24273;SDS011;12392;42.678;23.380;2022-11-15T08:51:23;56.33;;;21.67;;
24273;SDS011;12392;42.678;23.380;2022-11-15T08:53:49;43.65;;;19.55;;
24273;SDS011;12392;42.678;23.380;2022-11-15T08:56:14;49.88;;;20.58;;
24273;SDS011;12392;42.678;23.380;2022-11-15T08:58:40;44.15;;;21.25;;
24273;SDS011;12392;42.678;23.380;2022-11-15T09:01:13;49.28;;;20.60;;
24273;SDS011;12392;42.678;23.380;2022-11-15T09:03:41;48.10;;;20.25;;
24273;SDS011;12392;42.678;23.380;2022-11-15T09:06:06;51.53;;;23.35;;
24273;SDS011;12392;42.678;23.380;2022-11-15T09:08:32;61.20;;;22.63;;
24273;SDS011;12392;42.678;23.380;2022-11-15T09:10:58;45.10;;;20.65;;
24273;SDS011;12392;42.678;23.380;2022-11-15T09:13:23;49.70;;;21.40;;
24273;SDS011;12392;42.678;23.380;2022-11-15T09:15:49;58.90;;;22.90;;
24273;SDS011;12392;42.678;23.380;2022-11-15T09:18:15;44.20;;;20.20;;
24273;SDS011;12392;42.678;23.380;2022-11-15T09:20:46;53.03;;;22.48;;
24273;SDS011;12392;42.678;23.380;2022-11-15T09:23:25;48.90;;;21.15;;
24273;SDS011;12392;42.678;23.380;2022-11-15T09:26:01;48.58;;;22.08;;
24273;SDS011;12392;42.678;23.380;2022-11-15T09:28:28;48.13;;;22.52;;
24273;SDS011;12392;42.678;23.380;2022-11-15T09:30:57;61.47;;;25.73;;
24273;SDS011;12392;42.678;23.380;2022-11-15T09:33:27;59.08;;;25.40;;
24273;SDS011;12392;42.678;23.380;2022-11-15T09:35:53;47.20;;;22.08;;
24273;SDS011;12392;42.678;23.380;2022-11-15T09:38:19;59.28;;;23.20;;
24273;SDS011;12392;42.678;23.380;2022-11-15T09:40:46;62.58;;;24.75;;
24273;SDS011;12392;42.678;23.380;2022-11-15T09:51:53;51.97;;;23.63;;
24273;SDS011;12392;42.678;23.380;2022-11-15T09:54:29;47.85;;;21.67;;
24273;SDS011;12392;42.678;23.380;2022-11-15T09:57:13;57.50;;;23.98;;
24273;SDS011;12392;42.678;23.380;2022-11-15T10:05:12;51.35;;;23.55;;
24273;SDS011;12392;42.678;23.380;2022-11-15T10:10:56;56.80;;;23.90;;
24273;SDS011;12392;42.678;23.380;2022-11-15T10:13:31;53.92;;;23.27;;
24273;SDS011;12392;42.678;23.380;2022-11-15T10:22:21;49.63;;;22.80;;
24273;SDS011;12392;42.678;23.380;2022-11-15T10:27:36;45.70;;;20.60;;
24273;SDS011;12392;42.678;23.380;2022-11-15T10:30:02;56.33;;;23.02;;
24273;SDS011;12392;42.678;23.380;2022-11-15T10:32:31;56.35;;;24.80;;
24273;SDS011;12392;42.678;23.380;2022-11-15T10:34:58;53.70;;;23.45;;
24273;SDS011;12392;42.678;23.380;2022-11-15T10:37:30;58.97;;;25.88;;
24273;SDS011;12392;42.678;23.380;2022-11-15T10:40:06;51.63;;;23.48;;
24273;SDS011;12392;42.678;23.380;2022-11-15T10:45:43;57.60;;;22.35;;
24273;SDS011;12392;42.678;23.380;2022-11-15T10:48:20;54.90;;;23.02;;
24273;SDS011;12392;42.678;23.380;2022-11-15T10:50:47;44.38;;;21.95;;
24273;SDS011;12392;42.678;23.380;2022-11-15T10:53:20;49.20;;;20.05;;
24273;SDS011;12392;42.678;23.380;2022-11-15T10:55:50;51.13;;;23.40;;
24273;SDS011;12392;42.678;23.380;2022-11-15T10:58:22;63.72;;;24.65;;
24273;SDS011;12392;42.678;23.380;2022-11-15T11:01:08;48.70;;;20.92;;
24273;SDS011;12392;42.678;23.380;2022-11-15T11:03:35;46.30;;;22.60;;
24273;SDS011;12392;42.678;23.380;2022-11-15T11:06:09;49.70;;;21.95;;
24273;SDS011;12392;42.678;23.380;2022-11-15T11:09:02;57.35;;;22.58;;
24273;SDS011;12392;42.678;23.380;2022-11-15T11:11:46;46.10;;;21.75;;
24273;SDS011;12392;42.678;23.380;2022-11-15T11:14:29;41.50;;;17.33;;
24273;SDS011;12392;42.678;23.380;2022-11-15T11:25:35;41.42;;;19.98;;
24273;SDS011;12392;42.678;23.380;2022-11-15T11:36:35;43.97;;;20.15;;
24273;SDS011;12392;42.678;23.380;2022-11-15T11:44:28;52.80;;;21.23;;
24273;SDS011;12392;42.678;23.380;2022-11-15T11:47:24;43.75;;;20.52;;
24273;SDS011;12392;42.678;23.380;2022-11-15T11:50:01;50.67;;;22.20;;
24273;SDS011;12392;42.678;23.380;2022-11-15T11:52:44;47.63;;;21.63;;
24273;SDS011;12392;42.678;23.380;2022-11-15T12:03:38;36.20;;;18.98;;
24273;SDS011;12392;42.678;23.380;2022-11-15T12:14:58;36.53;;;18.47;;
24273;SDS011;12392;42.678;23.380;2022-11-15T12:17:29;38.88;;;17.90;;
24273;SDS011;12392;42.678;23.380;2022-11-15T12:20:06;45.80;;;20.67;;
24273;SDS011;12392;42.678;23.380;2022-11-15T12:22:43;46.72;;;20.73;;
24273;SDS011;12392;42.678;23.380;2022-11-15T12:25:34;40.50;;;20.10;;
24273;SDS011;12392;42.678;23.380;2022-11-15T12:28:21;50.53;;;21.67;;
24273;SDS011;12392;42.678;23.380;2022-11-15T12:31:01;49.40;;;23.23;;
24273;SDS011;12392;42.678;23.380;2022-11-15T12:33:38;49.35;;;23.13;;
24273;SDS011;12392;42.678;23.380;2022-11-15T12:41:16;39.45;;;19.33;;
24273;SDS011;12392;42.678;23.380;2022-11-15T12:43:43;40.40;;;20.52;;
24273;SDS011;12392;42.678;23.380;2022-11-15T12:46:11;49.58;;;20.65;;
24273;SDS011;12392;42.678;23.380;2022-11-15T12:51:11;51.22;;;21.88;;
24273;SDS011;12392;42.678;23.380;2022-11-15T12:53:36;45.70;;;21.13;;
24273;SDS011;12392;42.678;23.380;2022-11-15T12:58:48;42.53;;;21.50;;
24273;SDS011;12392;42.678;23.380;2022-11-15T13:17:37;57.90;;;23.58;;
24273;SDS011;12392;42.678;23.380;2022-11-15T13:22:43;50.03;;;24.63;;
24273;SDS011;12392;42.678;23.380;2022-11-15T13:27:55;64.45;;;27.50;;
24273;SDS011;12392;42.678;23.380;2022-11-15T13:30:31;55.17;;;27.20;;
24273;SDS011;12392;42.678;23.380;2022-11-15T13:33:06;55.70;;;25.27;;
24273;SDS011;12392;42.678;23.380;2022-11-15T13:35:39;54.95;;;27.15;;
24273;SDS011;12392;42.678;23.380;2022-11-15T13:38:06;52.13;;;26.23;;
24273;SDS011;12392;42.678;23.380;2022-11-15T13:40:37;60.88;;;26.27;;
24273;SDS011;12392;42.678;23.380;2022-11-15T13:49:08;65.07;;;28.58;;
24273;SDS011;12392;42.678;23.380;2022-11-15T13:56:38;73.43;;;30.83;;
24273;SDS011;12392;42.678;23.380;2022-11-15T13:59:10;70.82;;;32.95;;
24273;SDS011;12392;42.678;23.380;2022-11-15T14:01:53;76.18;;;36.95;;
24273;SDS011;12392;42.678;23.380;2022-11-15T14:04:21;82.55;;;38.05;;
24273;SDS011;12392;42.678;23.380;2022-11-15T14:06:49;74.28;;;37.67;;
24273;SDS011;12392;42.678;23.380;2022-11-15T14:12:01;82.50;;;37.28;;
24273;SDS011;12392;42.678;23.380;2022-11-15T14:14:45;72.25;;;35.08;;
24273;SDS011;12392;42.678;23.380;2022-11-15T14:19:55;77.15;;;34.25;;
24273;SDS011;12392;42.678;23.380;2022-11-15T14:22:23;64.60;;;31.83;;
24273;SDS011;12392;42.678;23.380;2022-11-15T14:25:12;76.93;;;36.55;;
24273;SDS011;12392;42.678;23.380;2022-11-15T14:27:40;80.60;;;39.30;;
24273;SDS011;12392;42.678;23.380;2022-11-15T14:30:12;80.43;;;39.13;;
24273;SDS011;12392;42.678;23.380;2022-11-15T14:32:46;80.20;;;38.10;;
24273;SDS011;12392;42.678;23.380;2022-11-15T14:35:18;83.38;;;36.10;;
24273;SDS011;12392;42.678;23.380;2022-11-15T14:37:45;63.90;;;31.27;;
24273;SDS011;12392;42.678;23.380;2022-11-15T14:40:15;63.15;;;29.73;;
24273;SDS011;12392;42.678;23.380;2022-11-15T14:42:43;48.43;;;25.63;;
24273;SDS011;12392;42.678;23.380;2022-11-15T14:45:20;50.92;;;24.23;;
24273;SDS011;12392;42.678;23.380;2022-11-15T14:47:46;47.10;;;24.60;;
24273;SDS011;12392;42.678;23.380;2022-11-15T14:50:16;44.65;;;22.52;;
24273;SDS011;12392;42.678;23.380;2022-11-15T14:52:44;47.63;;;23.80;;
24273;SDS011;12392;42.678;23.380;2022-11-15T14:57:46;54.90;;;24.98;;
24273;SDS011;12392;42.678;23.380;2022-11-15T15:00:12;61.80;;;29.27;;
24273;SDS011;12392;42.678;23.380;2022-11-15T15:02:38;59.58;;;29.58;;
24273;SDS011;12392;42.678;23.380;2022-11-15T15:05:40;59.38;;;25.88;;
24273;SDS011;12392;42.678;23.380;2022-11-15T15:07:59;62.55;;;30.45;;
24273;SDS011;12392;42.678;23.380;2022-11-15T15:10:25;60.55;;;29.38;;
24273;SDS011;12392;42.678;23.380;2022-11-15T15:12:55;55.20;;;26.55;;
24273;SDS011;12392;42.678;23.380;2022-11-15T15:15:24;58.75;;;28.67;;
24273;SDS011;12392;42.678;23.380;2022-11-15T15:17:51;71.95;;;34.70;;
24273;SDS011;12392;42.678;23.380;2022-11-15T15:20:17;70.63;;;36.13;;
24273;SDS011;12392;42.678;23.380;2022-11-15T15:22:43;65.43;;;32.67;;
24273;SDS011;12392;42.678;23.380;2022-11-15T15:27:48;71.05;;;35.53;;
24273;SDS011;12392;42.678;23.380;2022-11-15T15:30:14;72.38;;;35.95;;
24273;SDS011;12392;42.678;23.380;2022-11-15T15:32:39;88.30;;;42.95;;
24273;SDS011;12392;42.678;23.380;2022-11-15T15:35:05;94.20;;;44.78;;
24273;SDS011;12392;42.678;23.380;2022-11-15T15:37:31;83.90;;;41.47;;
24273;SDS011;12392;42.678;23.380;2022-11-15T15:39:58;112.07;;;51.42;;
24273;SDS011;12392;42.678;23.380;2022-11-15T15:42:24;167.95;;;86.22;;
24273;SDS011;12392;42.678;23.380;2022-11-15T15:44:49;152.27;;;80.53;;
24273;SDS011;12392;42.678;23.380;2022-11-15T15:47:16;141.15;;;72.03;;
24273;SDS011;12392;42.678;23.380;2022-11-15T15:49:43;115.90;;;61.35;;
24273;SDS011;12392;42.678;23.380;2022-11-15T15:52:08;96.20;;;47.67;;
24273;SDS011;12392;42.678;23.380;2022-11-15T15:54:34;105.38;;;47.38;;
24273;SDS011;12392;42.678;23.380;2022-11-15T15:57:00;86.35;;;42.70;;
24273;SDS011;12392;42.678;23.380;2022-11-15T15:59:26;105.60;;;49.30;;
24273;SDS011;12392;42.678;23.380;2022-11-15T16:01:51;79.00;;;35.83;;
24273;SDS011;12392;42.678;23.380;2022-11-15T16:04:17;75.28;;;36.40;;
24273;SDS011;12392;42.678;23.380;2022-11-15T16:06:43;66.75;;;31.88;;
24273;SDS011;12392;42.678;23.380;2022-11-15T16:09:13;65.47;;;29.90;;
24273;SDS011;12392;42.678;23.380;2022-11-15T16:11:48;65.63;;;29.35;;
24273;SDS011;12392;42.678;23.380;2022-11-15T16:14:14;71.85;;;31.13;;
24273;SDS011;12392;42.678;23.380;2022-11-15T16:16:40;72.95;;;32.47;;
24273;SDS011;12392;42.678;23.380;2022-11-15T16:19:05;60.97;;;29.55;;
24273;SDS011;12392;42.678;23.380;2022-11-15T16:21:31;64.47;;;30.35;;
24273;SDS011;12392;42.678;23.380;2022-11-15T16:23:57;83.47;;;33.95;;
24273;SDS011;12392;42.678;23.380;2022-11-15T16:26:27;68.18;;;31.73;;
24273;SDS011;12392;42.678;23.380;2022-11-15T16:28:53;87.55;;;40.03;;
24273;SDS011;12392;42.678;23.380;2022-11-15T16:31:19;133.27;;;59.63;;
24273;SDS011;12392;42.678;23.380;2022-11-15T16:33:48;147.68;;;66.63;;
24273;SDS011;12392;42.678;23.380;2022-11-15T16:36:35;124.72;;;58.08;;
24273;SDS011;12392;42.678;23.380;2022-11-15T16:39:00;101.97;;;44.47;;
24273;SDS011;12392;42.678;23.380;2022-11-15T16:41:29;99.35;;;47.13;;
24273;SDS011;12392;42.678;23.380;2022-11-15T16:43:55;126.75;;;57.78;;
24273;SDS011;12392;42.678;23.380;2022-11-15T16:46:22;114.60;;;52.97;;
24273;SDS011;12392;42.678;23.380;2022-11-15T16:48:49;116.78;;;53.15;;
24273;SDS011;12392;42.678;23.380;2022-11-15T16:51:15;116.82;;;52.15;;
24273;SDS011;12392;42.678;23.380;2022-11-15T16:53:41;118.28;;;54.53;;